sensor_id;sensor_type;location;lat;lon;timestamp;P1;durP1;ratioP1;P2;durP2;ratioP2
32026;SDS011;18543;50.848;4.596;2023-09-19T07:17:04;8.82;;;2.53;;
32026;SDS011;18543;50.848;4.596;2023-09-19T07:19:31;8.48;;;2.60;;
32026;SDS011;18543;50.848;4.596;2023-09-19T07:21:59;8.00;;;2.33;;
32026;SDS011;18543;50.848;4.596;2023-09-19T07:24:28;9.23;;;2.50;;
32026;SDS011;18543;50.848;4.596;2023-09-19T07:26:56;11.67;;;3.00;;
32026;SDS011;18543;50.848;4.596;2023-09-19T07:29:23;12.67;;;2.77;;
32026;SDS011;18543;50.848;4.596;2023-09-19T07:31:52;9.23;;;2.55;;
32026;SDS011;18543;50.848;4.596;2023-09-19T07:34:20;11.30;;;3.10;;
32026;SDS011;18543;50.848;4.596;2023-09-19T07:36:49;8.25;;;2.53;;
32026;SDS011;18543;50.848;4.596;2023-09-19T07:39:16;8.80;;;2.60;;
32026;SDS011;18543;50.848;4.596;2023-09-19T07:41:48;9.95;;;2.70;;
32026;SDS011;18543;50.848;4.596;2023-09-19T07:44:16;12.60;;;3.00;;
32026;SDS011;18543;50.848;4.596;2023-09-19T07:46:43;10.93;;;2.90;;
32026;SDS011;18543;50.848;4.596;2023-09-19T07:49:11;10.13;;;3.20;;
32026;SDS011;18543;50.848;4.596;2023-09-19T07:51:38;11.82;;;3.25;;
32026;SDS011;18543;50.848;4.596;2023-09-19T07:54:12;11.75;;;2.90;;
32026;SDS011;18543;50.848;4.596;2023-09-19T07:59:08;10.03;;;2.73;;
32026;SDS011;18543;50.848;4.596;2023-09-19T08:01:37;9.48;;;2.75;;
32026;SDS011;18543;50.848;4.596;2023-09-19T08:04:07;11.88;;;3.05;;
32026;SDS011;18543;50.848;4.596;2023-09-19T08:06:34;8.70;;;2.30;;
32026;SDS011;18543;50.848;4.596;2023-09-19T08:09:04;10.80;;;2.85;;
32026;SDS011;18543;50.848;4.596;2023-09-19T08:11:35;11.52;;;3.15;;
32026;SDS011;18543;50.848;4.596;2023-09-19T08:14:02;11.27;;;3.07;;
32026;SDS011;18543;50.848;4.596;2023-09-19T08:16:32;9.63;;;2.90;;
32026;SDS011;18543;50.848;4.596;2023-09-19T08:18:59;8.05;;;2.53;;
32026;SDS011;18543;50.848;4.596;2023-09-19T08:21:27;9.02;;;2.92;;
32026;SDS011;18543;50.848;4.596;2023-09-19T08:23:55;10.82;;;3.08;;
32026;SDS011;18543;50.848;4.596;2023-09-19T08:26:26;12.27;;;3.35;;
32026;SDS011;18543;50.848;4.596;2023-09-19T08:28:54;10.27;;;2.80;;
32026;SDS011;18543;50.848;4.596;2023-09-19T08:31:22;12.80;;;3.33;;
32026;SDS011;18543;50.848;4.596;2023-09-19T08:33:53;13.00;;;3.25;;
32026;SDS011;18543;50.848;4.596;2023-09-19T08:36:22;10.55;;;3.00;;
32026;SDS011;18543;50.848;4.596;2023-09-19T08:38:49;13.17;;;3.03;;
32026;SDS011;18543;50.848;4.596;2023-09-19T08:41:17;9.87;;;2.73;;
32026;SDS011;18543;50.848;4.596;2023-09-19T08:43:44;11.05;;;3.00;;
32026;SDS011;18543;50.848;4.596;2023-09-19T08:46:16;11.00;;;2.88;;
32026;SDS011;18543;50.848;4.596;2023-09-19T08:48:52;13.07;;;2.70;;
32026;SDS011;18543;50.848;4.596;2023-09-19T08:53:58;12.80;;;2.97;;
32026;SDS011;18543;50.848;4.596;2023-09-19T08:56:30;12.30;;;2.65;;
32026;SDS011;18543;50.848;4.596;2023-09-19T08:59:00;11.68;;;2.88;;
32026;SDS011;18543;50.848;4.596;2023-09-19T09:01:31;12.40;;;2.78;;
32026;SDS011;18543;50.848;4.596;2023-09-19T09:03:59;11.23;;;2.97;;
32026;SDS011;18543;50.848;4.596;2023-09-19T09:06:28;12.18;;;3.00;;
32026;SDS011;18543;50.848;4.596;2023-09-19T09:11:23;11.48;;;2.75;;
32026;SDS011;18543;50.848;4.596;2023-09-19T09:13:51;13.50;;;3.25;;
32026;SDS011;18543;50.848;4.596;2023-09-19T09:16:18;11.52;;;3.35;;
32026;SDS011;18543;50.848;4.596;2023-09-19T09:18:46;11.18;;;2.90;;
32026;SDS011;18543;50.848;4.596;2023-09-19T09:21:25;11.75;;;3.30;;
32026;SDS011;18543;50.848;4.596;2023-09-19T09:23:53;9.07;;;2.90;;
32026;SDS011;18543;50.848;4.596;2023-09-19T09:26:54;9.68;;;3.00;;
32026;SDS011;18543;50.848;4.596;2023-09-19T09:29:15;8.95;;;2.60;;
32026;SDS011;18543;50.848;4.596;2023-09-19T09:31:49;8.45;;;2.92;;
32026;SDS011;18543;50.848;4.596;2023-09-19T09:34:16;10.82;;;3.15;;
32026;SDS011;18543;50.848;4.596;2023-09-19T09:36:44;10.13;;;2.80;;
32026;SDS011;18543;50.848;4.596;2023-09-19T09:39:27;10.07;;;2.80;;
32026;SDS011;18543;50.848;4.596;2023-09-19T09:41:58;8.65;;;2.60;;
32026;SDS011;18543;50.848;4.596;2023-09-19T09:44:25;7.97;;;2.17;;
32026;SDS011;18543;50.848;4.596;2023-09-19T09:46:58;7.30;;;2.75;;
32026;SDS011;18543;50.848;4.596;2023-09-19T09:49:47;8.45;;;2.55;;
32026;SDS011;18543;50.848;4.596;2023-09-19T09:52:21;6.63;;;2.35;;
32026;SDS011;18543;50.848;4.596;2023-09-19T09:54:58;9.00;;;2.55;;
32026;SDS011;18543;50.848;4.596;2023-09-19T09:57:26;5.88;;;2.30;;
32026;SDS011;18543;50.848;4.596;2023-09-19T09:59:56;9.40;;;2.50;;
32026;SDS011;18543;50.848;4.596;2023-09-19T10:02:45;7.88;;;2.75;;
32026;SDS011;18543;50.848;4.596;2023-09-19T10:05:14;7.05;;;2.90;;
32026;SDS011;18543;50.848;4.596;2023-09-19T10:07:51;6.18;;;2.47;;
32026;SDS011;18543;50.848;4.596;2023-09-19T10:10:31;9.00;;;2.38;;
32026;SDS011;18543;50.848;4.596;2023-09-19T10:13:08;6.55;;;2.35;;
32026;SDS011;18543;50.848;4.596;2023-09-19T10:15:45;7.00;;;2.30;;
32026;SDS011;18543;50.848;4.596;2023-09-19T10:18:19;6.23;;;2.27;;
32026;SDS011;18543;50.848;4.596;2023-09-19T10:20:48;6.05;;;2.25;;
32026;SDS011;18543;50.848;4.596;2023-09-19T10:23:17;6.50;;;2.25;;
32026;SDS011;18543;50.848;4.596;2023-09-19T10:25:53;6.28;;;2.20;;
32026;SDS011;18543;50.848;4.596;2023-09-19T10:28:21;9.07;;;2.35;;
32026;SDS011;18543;50.848;4.596;2023-09-19T10:30:50;6.20;;;2.35;;
32026;SDS011;18543;50.848;4.596;2023-09-19T10:33:18;6.10;;;2.35;;
32026;SDS011;18543;50.848;4.596;2023-09-19T10:35:49;6.45;;;1.90;;
32026;SDS011;18543;50.848;4.596;2023-09-19T10:38:22;7.22;;;2.10;;
32026;SDS011;18543;50.848;4.596;2023-09-19T10:40:50;6.88;;;2.50;;
32026;SDS011;18543;50.848;4.596;2023-09-19T10:45:46;7.28;;;2.72;;
32026;SDS011;18543;50.848;4.596;2023-09-19T10:48:16;4.20;;;1.92;;
32026;SDS011;18543;50.848;4.596;2023-09-19T10:50:56;5.13;;;2.15;;
32026;SDS011;18543;50.848;4.596;2023-09-19T10:53:26;6.22;;;2.10;;
32026;SDS011;18543;50.848;4.596;2023-09-19T10:58:25;5.63;;;1.83;;
32026;SDS011;18543;50.848;4.596;2023-09-19T11:00:56;4.10;;;2.13;;
32026;SDS011;18543;50.848;4.596;2023-09-19T11:03:28;4.95;;;2.10;;
32026;SDS011;18543;50.848;4.596;2023-09-19T11:06:01;6.40;;;2.42;;
32026;SDS011;18543;50.848;4.596;2023-09-19T11:22:24;4.35;;;1.95;;
32026;SDS011;18543;50.848;4.596;2023-09-19T11:24:52;7.85;;;2.10;;
32026;SDS011;18543;50.848;4.596;2023-09-19T11:27:29;3.97;;;1.98;;
32026;SDS011;18543;50.848;4.596;2023-09-19T11:30:25;5.80;;;2.05;;
32026;SDS011;18543;50.848;4.596;2023-09-19T11:46:23;5.55;;;2.03;;
32026;SDS011;18543;50.848;4.596;2023-09-19T11:48:51;4.38;;;2.10;;
32026;SDS011;18543;50.848;4.596;2023-09-19T11:51:24;3.20;;;1.80;;
32026;SDS011;18543;50.848;4.596;2023-09-19T11:53:58;4.38;;;1.80;;
32026;SDS011;18543;50.848;4.596;2023-09-19T11:56:26;4.63;;;1.60;;
32026;SDS011;18543;50.848;4.596;2023-09-19T11:58:54;3.85;;;2.00;;
32026;SDS011;18543;50.848;4.596;2023-09-19T12:03:52;6.13;;;1.50;;
32026;SDS011;18543;50.848;4.596;2023-09-19T12:06:20;3.80;;;1.80;;
32026;SDS011;18543;50.848;4.596;2023-09-19T12:08:48;4.10;;;1.92;;
32026;SDS011;18543;50.848;4.596;2023-09-19T12:11:17;4.90;;;1.92;;
32026;SDS011;18543;50.848;4.596;2023-09-19T12:13:46;4.80;;;2.00;;
32026;SDS011;18543;50.848;4.596;2023-09-19T12:16:17;5.95;;;2.05;;
32026;SDS011;18543;50.848;4.596;2023-09-19T12:18:48;2.92;;;1.58;;
32026;SDS011;18543;50.848;4.596;2023-09-19T12:21:23;5.75;;;1.67;;
32026;SDS011;18543;50.848;4.596;2023-09-19T12:26:27;4.10;;;2.17;;
32026;SDS011;18543;50.848;4.596;2023-09-19T12:28:55;3.53;;;1.93;;
32026;SDS011;18543;50.848;4.596;2023-09-19T12:31:23;6.93;;;1.98;;
32026;SDS011;18543;50.848;4.596;2023-09-19T12:33:56;2.92;;;1.60;;
32026;SDS011;18543;50.848;4.596;2023-09-19T12:36:25;3.28;;;1.90;;
32026;SDS011;18543;50.848;4.596;2023-09-19T12:38:56;3.97;;;1.85;;
32026;SDS011;18543;50.848;4.596;2023-09-19T12:41:26;4.95;;;2.00;;
32026;SDS011;18543;50.848;4.596;2023-09-19T12:43:54;4.13;;;1.55;;
32026;SDS011;18543;50.848;4.596;2023-09-19T12:46:26;3.53;;;1.65;;
32026;SDS011;18543;50.848;4.596;2023-09-19T12:51:40;3.10;;;1.73;;
32026;SDS011;18543;50.848;4.596;2023-09-19T12:54:07;3.40;;;1.58;;
32026;SDS011;18543;50.848;4.596;2023-09-19T12:56:40;2.88;;;1.60;;
32026;SDS011;18543;50.848;4.596;2023-09-19T12:59:12;2.75;;;1.50;;
32026;SDS011;18543;50.848;4.596;2023-09-19T13:01:40;3.35;;;1.80;;
32026;SDS011;18543;50.848;4.596;2023-09-19T13:04:16;2.15;;;1.60;;
32026;SDS011;18543;50.848;4.596;2023-09-19T13:06:52;3.88;;;1.75;;
32026;SDS011;18543;50.848;4.596;2023-09-19T13:09:22;2.75;;;1.70;;
32026;SDS011;18543;50.848;4.596;2023-09-19T13:12:00;3.00;;;1.70;;
32026;SDS011;18543;50.848;4.596;2023-09-19T13:14:29;3.85;;;1.67;;
32026;SDS011;18543;50.848;4.596;2023-09-19T13:17:09;3.03;;;1.70;;
32026;SDS011;18543;50.848;4.596;2023-09-19T13:19:47;3.60;;;1.55;;
32026;SDS011;18543;50.848;4.596;2023-09-19T13:22:36;2.30;;;1.40;;
32026;SDS011;18543;50.848;4.596;2023-09-19T13:25:17;3.58;;;1.52;;
32026;SDS011;18543;50.848;4.596;2023-09-19T13:30:14;2.95;;;1.63;;
32026;SDS011;18543;50.848;4.596;2023-09-19T13:32:41;4.57;;;1.65;;
32026;SDS011;18543;50.848;4.596;2023-09-19T13:35:10;2.20;;;1.60;;
32026;SDS011;18543;50.848;4.596;2023-09-19T13:37:38;3.35;;;1.50;;
32026;SDS011;18543;50.848;4.596;2023-09-19T13:42:35;3.17;;;1.60;;
32026;SDS011;18543;50.848;4.596;2023-09-19T13:45:03;3.38;;;1.85;;
32026;SDS011;18543;50.848;4.596;2023-09-19T13:47:33;2.75;;;1.42;;
32026;SDS011;18543;50.848;4.596;2023-09-19T13:50:04;1.92;;;1.23;;
32026;SDS011;18543;50.848;4.596;2023-09-19T13:52:33;2.95;;;1.60;;
32026;SDS011;18543;50.848;4.596;2023-09-19T13:55:00;5.18;;;1.50;;
32026;SDS011;18543;50.848;4.596;2023-09-19T13:57:28;3.47;;;1.60;;
32026;SDS011;18543;50.848;4.596;2023-09-19T13:59:56;3.33;;;1.75;;
32026;SDS011;18543;50.848;4.596;2023-09-19T14:02:23;4.05;;;1.75;;
32026;SDS011;18543;50.848;4.596;2023-09-19T14:04:51;3.85;;;1.30;;
32026;SDS011;18543;50.848;4.596;2023-09-19T14:07:19;4.55;;;1.80;;
32026;SDS011;18543;50.848;4.596;2023-09-19T14:09:46;2.30;;;1.40;;
32026;SDS011;18543;50.848;4.596;2023-09-19T14:12:14;5.47;;;1.73;;
32026;SDS011;18543;50.848;4.596;2023-09-19T14:14:44;2.88;;;1.40;;
32026;SDS011;18543;50.848;4.596;2023-09-19T14:17:11;3.42;;;1.40;;
32026;SDS011;18543;50.848;4.596;2023-09-19T14:19:40;4.35;;;1.70;;
32026;SDS011;18543;50.848;4.596;2023-09-19T14:22:11;3.97;;;1.38;;
32026;SDS011;18543;50.848;4.596;2023-09-19T14:24:40;4.05;;;1.65;;
32026;SDS011;18543;50.848;4.596;2023-09-19T14:27:07;5.60;;;1.53;;
32026;SDS011;18543;50.848;4.596;2023-09-19T14:29:35;4.93;;;1.40;;
32026;SDS011;18543;50.848;4.596;2023-09-19T14:32:03;4.68;;;1.63;;
32026;SDS011;18543;50.848;4.596;2023-09-19T14:34:31;4.25;;;1.52;;
32026;SDS011;18543;50.848;4.596;2023-09-19T14:36:59;5.00;;;1.40;;
32026;SDS011;18543;50.848;4.596;2023-09-19T14:39:26;4.63;;;1.70;;
32026;SDS011;18543;50.848;4.596;2023-09-19T14:41:56;3.50;;;1.48;;
32026;SDS011;18543;50.848;4.596;2023-09-19T14:44:23;4.40;;;1.63;;
32026;SDS011;18543;50.848;4.596;2023-09-19T14:46:51;4.35;;;1.40;;
32026;SDS011;18543;50.848;4.596;2023-09-19T14:49:18;3.53;;;1.30;;
32026;SDS011;18543;50.848;4.596;2023-09-19T14:51:46;2.93;;;1.30;;
32026;SDS011;18543;50.848;4.596;2023-09-19T14:54:18;6.55;;;1.40;;
32026;SDS011;18543;50.848;4.596;2023-09-19T14:56:46;3.85;;;1.42;;
32026;SDS011;18543;50.848;4.596;2023-09-19T14:59:20;7.68;;;1.35;;
32026;SDS011;18543;50.848;4.596;2023-09-19T15:01:47;5.22;;;1.50;;
32026;SDS011;18543;50.848;4.596;2023-09-19T15:04:16;5.07;;;1.45;;
32026;SDS011;18543;50.848;4.596;2023-09-19T15:06:44;2.83;;;1.50;;
32026;SDS011;18543;50.848;4.596;2023-09-19T15:09:12;3.33;;;1.35;;
32026;SDS011;18543;50.848;4.596;2023-09-19T15:11:44;3.60;;;1.30;;
32026;SDS011;18543;50.848;4.596;2023-09-19T15:14:12;3.88;;;1.27;;
32026;SDS011;18543;50.848;4.596;2023-09-19T15:16:39;6.05;;;1.75;;
32026;SDS011;18543;50.848;4.596;2023-09-19T15:19:10;5.57;;;1.40;;
32026;SDS011;18543;50.848;4.596;2023-09-19T15:21:37;2.10;;;1.17;;
32026;SDS011;18543;50.848;4.596;2023-09-19T15:24:05;3.20;;;1.30;;
32026;SDS011;18543;50.848;4.596;2023-09-19T15:26:36;2.35;;;1.35;;
32026;SDS011;18543;50.848;4.596;2023-09-19T15:29:11;3.13;;;1.13;;
32026;SDS011;18543;50.848;4.596;2023-09-19T15:31:39;3.30;;;1.30;;
32026;SDS011;18543;50.848;4.596;2023-09-19T15:34:09;3.65;;;1.40;;
32026;SDS011;18543;50.848;4.596;2023-09-19T15:36:40;4.57;;;1.55;;
32026;SDS011;18543;50.848;4.596;2023-09-19T15:39:08;2.60;;;1.23;;
32026;SDS011;18543;50.848;4.596;2023-09-19T15:41:41;5.05;;;1.40;;
32026;SDS011;18543;50.848;4.596;2023-09-19T15:44:11;3.40;;;1.40;;
32026;SDS011;18543;50.848;4.596;2023-09-19T15:46:40;2.20;;;1.30;;
32026;SDS011;18543;50.848;4.596;2023-09-19T15:49:08;2.75;;;1.40;;
32026;SDS011;18543;50.848;4.596;2023-09-19T15:51:35;2.65;;;1.15;;
32026;SDS011;18543;50.848;4.596;2023-09-19T15:54:15;3.03;;;1.40;;
32026;SDS011;18543;50.848;4.596;2023-09-19T15:56:43;2.90;;;1.30;;
32026;SDS011;18543;50.848;4.596;2023-09-19T16:01:41;3.63;;;1.50;;
32026;SDS011;18543;50.848;4.596;2023-09-19T16:04:10;1.52;;;1.10;;
32026;SDS011;18543;50.848;4.596;2023-09-19T16:06:38;2.92;;;1.30;;
32026;SDS011;18543;50.848;4.596;2023-09-19T16:09:06;4.45;;;1.33;;
32026;SDS011;18543;50.848;4.596;2023-09-19T16:11:33;3.23;;;1.30;;
32026;SDS011;18543;50.848;4.596;2023-09-19T16:14:02;2.20;;;1.25;;
32026;SDS011;18543;50.848;4.596;2023-09-19T16:16:31;2.95;;;1.45;;
32026;SDS011;18543;50.848;4.596;2023-09-19T16:19:00;2.13;;;1.25;;
32026;SDS011;18543;50.848;4.596;2023-09-19T16:21:30;2.08;;;1.25;;
32026;SDS011;18543;50.848;4.596;2023-09-19T16:23:58;3.22;;;1.30;;
32026;SDS011;18543;50.848;4.596;2023-09-19T16:26:26;2.38;;;1.30;;
32026;SDS011;18543;50.848;4.596;2023-09-19T16:28:55;4.10;;;1.40;;
32026;SDS011;18543;50.848;4.596;2023-09-19T16:31:27;1.30;;;1.02;;
32026;SDS011;18543;50.848;4.596;2023-09-19T16:33:55;2.13;;;1.25;;
32026;SDS011;18543;50.848;4.596;2023-09-19T16:36:24;3.47;;;1.30;;
32026;SDS011;18543;50.848;4.596;2023-09-19T16:38:51;2.20;;;1.33;;
32026;SDS011;18543;50.848;4.596;2023-09-19T16:41:19;2.05;;;1.15;;
32026;SDS011;18543;50.848;4.596;2023-09-19T16:43:46;4.68;;;1.30;;
32026;SDS011;18543;50.848;4.596;2023-09-19T16:46:14;2.15;;;1.20;;
32026;SDS011;18543;50.848;4.596;2023-09-19T16:48:46;2.80;;;1.20;;
32026;SDS011;18543;50.848;4.596;2023-09-19T16:51:28;2.45;;;1.25;;
32026;SDS011;18543;50.848;4.596;2023-09-19T16:53:55;2.47;;;1.10;;
32026;SDS011;18543;50.848;4.596;2023-09-19T16:56:23;2.40;;;1.20;;
32026;SDS011;18543;50.848;4.596;2023-09-19T16:58:53;1.95;;;1.00;;
32026;SDS011;18543;50.848;4.596;2023-09-19T17:01:20;1.13;;;1.00;;
32026;SDS011;18543;50.848;4.596;2023-09-19T17:03:54;2.25;;;1.15;;
32026;SDS011;18543;50.848;4.596;2023-09-19T17:06:23;2.05;;;1.10;;
32026;SDS011;18543;50.848;4.596;2023-09-19T17:08:53;2.28;;;1.15;;
32026;SDS011;18543;50.848;4.596;2023-09-19T17:11:22;2.95;;;1.08;;
32026;SDS011;18543;50.848;4.596;2023-09-19T17:13:50;2.75;;;1.20;;
32026;SDS011;18543;50.848;4.596;2023-09-19T17:16:23;1.80;;;1.30;;
32026;SDS011;18543;50.848;4.596;2023-09-19T17:18:56;2.80;;;1.13;;
32026;SDS011;18543;50.848;4.596;2023-09-19T17:21:24;3.30;;;1.15;;
32026;SDS011;18543;50.848;4.596;2023-09-19T17:23:52;1.73;;;1.05;;
32026;SDS011;18543;50.848;4.596;2023-09-19T17:26:21;2.22;;;1.10;;
32026;SDS011;18543;50.848;4.596;2023-09-19T17:28:51;1.80;;;1.10;;
32026;SDS011;18543;50.848;4.596;2023-09-19T17:31:19;3.60;;;1.20;;
32026;SDS011;18543;50.848;4.596;2023-09-19T17:33:51;1.85;;;1.27;;
32026;SDS011;18543;50.848;4.596;2023-09-19T17:36:22;1.80;;;1.20;;
32026;SDS011;18543;50.848;4.596;2023-09-19T17:38:56;2.08;;;1.20;;
32026;SDS011;18543;50.848;4.596;2023-09-19T17:41:24;2.17;;;1.20;;
32026;SDS011;18543;50.848;4.596;2023-09-19T17:43:54;3.15;;;1.50;;
32026;SDS011;18543;50.848;4.596;2023-09-19T17:46:24;1.63;;;1.10;;
32026;SDS011;18543;50.848;4.596;2023-09-19T17:48:55;3.13;;;1.23;;
32026;SDS011;18543;50.848;4.596;2023-09-19T17:51:25;1.77;;;1.05;;
32026;SDS011;18543;50.848;4.596;2023-09-19T17:53:55;2.10;;;1.17;;
32026;SDS011;18543;50.848;4.596;2023-09-19T17:56:27;1.92;;;1.00;;
32026;SDS011;18543;50.848;4.596;2023-09-19T17:58:54;2.38;;;1.25;;
32026;SDS011;18543;50.848;4.596;2023-09-19T18:01:24;2.40;;;1.02;;
32026;SDS011;18543;50.848;4.596;2023-09-19T18:03:56;2.60;;;1.17;;
32026;SDS011;18543;50.848;4.596;2023-09-19T18:06:25;2.58;;;1.10;;
32026;SDS011;18543;50.848;4.596;2023-09-19T18:08:53;2.13;;;1.00;;
32026;SDS011;18543;50.848;4.596;2023-09-19T18:11:24;2.17;;;1.27;;
32026;SDS011;18543;50.848;4.596;2023-09-19T18:13:54;1.30;;;0.90;;
32026;SDS011;18543;50.848;4.596;2023-09-19T18:16:22;1.30;;;1.10;;
32026;SDS011;18543;50.848;4.596;2023-09-19T18:18:58;2.72;;;1.10;;
32026;SDS011;18543;50.848;4.596;2023-09-19T18:23:57;1.35;;;1.10;;
32026;SDS011;18543;50.848;4.596;2023-09-19T18:26:30;1.48;;;1.27;;
32026;SDS011;18543;50.848;4.596;2023-09-19T18:28:57;2.35;;;1.23;;
32026;SDS011;18543;50.848;4.596;2023-09-19T18:31:24;1.58;;;1.13;;
32026;SDS011;18543;50.848;4.596;2023-09-19T18:33:55;1.63;;;1.17;;
32026;SDS011;18543;50.848;4.596;2023-09-19T18:36:23;2.05;;;1.10;;
32026;SDS011;18543;50.848;4.596;2023-09-19T18:38:51;2.53;;;1.08;;
32026;SDS011;18543;50.848;4.596;2023-09-19T18:43:46;3.13;;;1.20;;
32026;SDS011;18543;50.848;4.596;2023-09-19T18:46:14;1.48;;;1.10;;
32026;SDS011;18543;50.848;4.596;2023-09-19T18:48:43;1.60;;;1.10;;
32026;SDS011;18543;50.848;4.596;2023-09-19T18:51:12;1.25;;;1.10;;
32026;SDS011;18543;50.848;4.596;2023-09-19T18:53:41;1.45;;;1.10;;
32026;SDS011;18543;50.848;4.596;2023-09-19T18:56:18;1.77;;;1.10;;
32026;SDS011;18543;50.848;4.596;2023-09-19T18:58:49;1.95;;;1.17;;
32026;SDS011;18543;50.848;4.596;2023-09-19T19:01:17;2.92;;;1.27;;
32026;SDS011;18543;50.848;4.596;2023-09-19T19:03:45;2.75;;;1.10;;
32026;SDS011;18543;50.848;4.596;2023-09-19T19:06:13;1.35;;;1.02;;
32026;SDS011;18543;50.848;4.596;2023-09-19T19:08:42;2.05;;;1.17;;
32026;SDS011;18543;50.848;4.596;2023-09-19T19:11:11;1.63;;;0.95;;
32026;SDS011;18543;50.848;4.596;2023-09-19T19:13:40;2.10;;;1.27;;
32026;SDS011;18543;50.848;4.596;2023-09-19T19:16:09;1.75;;;1.17;;
32026;SDS011;18543;50.848;4.596;2023-09-19T19:18:43;1.17;;;1.00;;
32026;SDS011;18543;50.848;4.596;2023-09-19T19:21:13;1.42;;;1.05;;
32026;SDS011;18543;50.848;4.596;2023-09-19T19:23:42;2.28;;;1.00;;
32026;SDS011;18543;50.848;4.596;2023-09-19T19:26:09;1.20;;;1.00;;
32026;SDS011;18543;50.848;4.596;2023-09-19T19:28:38;1.60;;;0.90;;
32026;SDS011;18543;50.848;4.596;2023-09-19T19:31:06;2.85;;;1.40;;
32026;SDS011;18543;50.848;4.596;2023-09-19T19:33:35;1.50;;;1.08;;
32026;SDS011;18543;50.848;4.596;2023-09-19T19:36:08;1.83;;;1.00;;
32026;SDS011;18543;50.848;4.596;2023-09-19T19:38:36;1.45;;;1.02;;
32026;SDS011;18543;50.848;4.596;2023-09-19T19:43:32;1.42;;;1.00;;
32026;SDS011;18543;50.848;4.596;2023-09-19T19:46:00;1.52;;;1.08;;
32026;SDS011;18543;50.848;4.596;2023-09-19T19:48:27;1.52;;;1.17;;
32026;SDS011;18543;50.848;4.596;2023-09-19T19:50:55;2.08;;;1.00;;
32026;SDS011;18543;50.848;4.596;2023-09-19T19:53:24;2.20;;;1.20;;
32026;SDS011;18543;50.848;4.596;2023-09-19T19:55:52;1.63;;;1.00;;
32026;SDS011;18543;50.848;4.596;2023-09-19T19:58:19;1.00;;;0.90;;
32026;SDS011;18543;50.848;4.596;2023-09-19T20:00:48;1.63;;;1.00;;
32026;SDS011;18543;50.848;4.596;2023-09-19T20:03:18;1.10;;;1.00;;
32026;SDS011;18543;50.848;4.596;2023-09-19T20:05:46;1.05;;;0.82;;
32026;SDS011;18543;50.848;4.596;2023-09-19T20:08:21;1.48;;;0.90;;
32026;SDS011;18543;50.848;4.596;2023-09-19T20:10:49;1.92;;;1.10;;
32026;SDS011;18543;50.848;4.596;2023-09-19T20:13:16;1.70;;;1.10;;
32026;SDS011;18543;50.848;4.596;2023-09-19T20:15:53;1.47;;;0.90;;
32026;SDS011;18543;50.848;4.596;2023-09-19T20:18:20;1.83;;;1.00;;
32026;SDS011;18543;50.848;4.596;2023-09-19T20:23:16;2.58;;;1.10;;
32026;SDS011;18543;50.848;4.596;2023-09-19T20:25:44;1.92;;;1.17;;
32026;SDS011;18543;50.848;4.596;2023-09-19T20:28:11;1.63;;;1.10;;
32026;SDS011;18543;50.848;4.596;2023-09-19T20:33:10;1.00;;;0.90;;
32026;SDS011;18543;50.848;4.596;2023-09-19T20:35:40;2.35;;;0.90;;
32026;SDS011;18543;50.848;4.596;2023-09-19T20:38:11;1.30;;;1.00;;
32026;SDS011;18543;50.848;4.596;2023-09-19T20:40:39;1.48;;;1.00;;
32026;SDS011;18543;50.848;4.596;2023-09-19T20:45:34;1.05;;;0.95;;
32026;SDS011;18543;50.848;4.596;2023-09-19T20:48:09;1.90;;;1.17;;
32026;SDS011;18543;50.848;4.596;2023-09-19T20:50:38;1.45;;;1.00;;
32026;SDS011;18543;50.848;4.596;2023-09-19T20:53:05;2.08;;;1.20;;
32026;SDS011;18543;50.848;4.596;2023-09-19T20:55:35;1.27;;;1.00;;
32026;SDS011;18543;50.848;4.596;2023-09-19T20:58:03;1.38;;;1.10;;
32026;SDS011;18543;50.848;4.596;2023-09-19T21:00:32;1.20;;;1.00;;
32026;SDS011;18543;50.848;4.596;2023-09-19T21:03:04;1.67;;;0.98;;
32026;SDS011;18543;50.848;4.596;2023-09-19T21:05:32;1.48;;;0.88;;
32026;SDS011;18543;50.848;4.596;2023-09-19T21:07:59;1.77;;;0.93;;
32026;SDS011;18543;50.848;4.596;2023-09-19T21:10:28;1.20;;;0.93;;
32026;SDS011;18543;50.848;4.596;2023-09-19T21:12:56;0.98;;;0.90;;
32026;SDS011;18543;50.848;4.596;2023-09-19T21:15:23;2.40;;;0.90;;
32026;SDS011;18543;50.848;4.596;2023-09-19T21:17:51;0.93;;;0.90;;
32026;SDS011;18543;50.848;4.596;2023-09-19T21:20:18;2.17;;;1.00;;
32026;SDS011;18543;50.848;4.596;2023-09-19T21:22:49;1.13;;;0.98;;
32026;SDS011;18543;50.848;4.596;2023-09-19T21:25:16;1.08;;;0.88;;
32026;SDS011;18543;50.848;4.596;2023-09-19T21:27:44;1.23;;;0.98;;
32026;SDS011;18543;50.848;4.596;2023-09-19T21:30:12;2.03;;;1.08;;
32026;SDS011;18543;50.848;4.596;2023-09-19T21:32:41;1.13;;;1.00;;
32026;SDS011;18543;50.848;4.596;2023-09-19T21:35:09;1.70;;;1.08;;
32026;SDS011;18543;50.848;4.596;2023-09-19T21:37:37;1.17;;;0.90;;
32026;SDS011;18543;50.848;4.596;2023-09-19T21:40:05;1.48;;;1.00;;
32026;SDS011;18543;50.848;4.596;2023-09-19T21:42:33;1.20;;;0.90;;
32026;SDS011;18543;50.848;4.596;2023-09-19T21:45:00;1.00;;;0.90;;
32026;SDS011;18543;50.848;4.596;2023-09-19T21:47:27;1.75;;;1.10;;
32026;SDS011;18543;50.848;4.596;2023-09-19T21:49:55;1.83;;;1.00;;
32026;SDS011;18543;50.848;4.596;2023-09-19T21:52:22;1.75;;;1.02;;
32026;SDS011;18543;50.848;4.596;2023-09-19T21:54:53;1.77;;;0.93;;
32026;SDS011;18543;50.848;4.596;2023-09-19T21:57:20;1.38;;;0.90;;
32026;SDS011;18543;50.848;4.596;2023-09-19T21:59:47;1.70;;;1.00;;
32026;SDS011;18543;50.848;4.596;2023-09-19T22:02:15;1.90;;;1.10;;
32026;SDS011;18543;50.848;4.596;2023-09-19T22:04:42;1.13;;;1.02;;
32026;SDS011;18543;50.848;4.596;2023-09-19T22:07:12;0.95;;;0.88;;
32026;SDS011;18543;50.848;4.596;2023-09-19T22:09:42;1.02;;;0.93;;
32026;SDS011;18543;50.848;4.596;2023-09-19T22:12:09;1.00;;;0.90;;
32026;SDS011;18543;50.848;4.596;2023-09-19T22:14:38;2.38;;;1.00;;
32026;SDS011;18543;50.848;4.596;2023-09-19T22:17:06;1.00;;;1.00;;
32026;SDS011;18543;50.848;4.596;2023-09-19T22:19:34;0.88;;;0.80;;
32026;SDS011;18543;50.848;4.596;2023-09-19T22:22:07;1.40;;;1.05;;
32026;SDS011;18543;50.848;4.596;2023-09-19T22:24:38;0.98;;;0.85;;
32026;SDS011;18543;50.848;4.596;2023-09-19T22:27:05;1.42;;;1.10;;
32026;SDS011;18543;50.848;4.596;2023-09-19T22:29:33;0.98;;;0.88;;
32026;SDS011;18543;50.848;4.596;2023-09-19T22:32:02;1.10;;;1.00;;
32026;SDS011;18543;50.848;4.596;2023-09-19T22:34:33;1.33;;;0.93;;
32026;SDS011;18543;50.848;4.596;2023-09-19T22:37:01;1.25;;;0.93;;
32026;SDS011;18543;50.848;4.596;2023-09-19T22:39:28;1.30;;;0.90;;
32026;SDS011;18543;50.848;4.596;2023-09-19T22:41:55;1.33;;;0.90;;
32026;SDS011;18543;50.848;4.596;2023-09-19T22:44:38;1.42;;;1.00;;
32026;SDS011;18543;50.848;4.596;2023-09-19T22:47:05;1.00;;;0.90;;
32026;SDS011;18543;50.848;4.596;2023-09-19T22:49:34;1.00;;;0.90;;
32026;SDS011;18543;50.848;4.596;2023-09-19T22:52:04;1.67;;;0.90;;
32026;SDS011;18543;50.848;4.596;2023-09-19T22:54:34;0.70;;;0.65;;
32026;SDS011;18543;50.848;4.596;2023-09-19T22:57:02;1.38;;;0.90;;
32026;SDS011;18543;50.848;4.596;2023-09-19T22:59:36;1.42;;;0.98;;
32026;SDS011;18543;50.848;4.596;2023-09-19T23:02:04;1.17;;;0.90;;
32026;SDS011;18543;50.848;4.596;2023-09-19T23:04:31;1.10;;;0.88;;
32026;SDS011;18543;50.848;4.596;2023-09-19T23:07:00;1.70;;;0.90;;
32026;SDS011;18543;50.848;4.596;2023-09-19T23:09:31;1.38;;;1.00;;
32026;SDS011;18543;50.848;4.596;2023-09-19T23:12:01;0.90;;;0.80;;
32026;SDS011;18543;50.848;4.596;2023-09-19T23:14:36;2.20;;;0.90;;
32026;SDS011;18543;50.848;4.596;2023-09-19T23:17:08;1.10;;;0.90;;
32026;SDS011;18543;50.848;4.596;2023-09-19T23:19:40;0.93;;;0.88;;
32026;SDS011;18543;50.848;4.596;2023-09-19T23:22:08;1.05;;;0.98;;
32026;SDS011;18543;50.848;4.596;2023-09-19T23:24:41;0.80;;;0.80;;
32026;SDS011;18543;50.848;4.596;2023-09-19T23:27:09;1.35;;;0.95;;